sensor_id;sensor_type;location;lat;lon;timestamp;pressure;altitude;pressure_sealevel;temperature;humidity
21240;BME280;10778;48.962;9.018;2023-04-04T00:01:27;100001.25;;;-0.30;66.31
21240;BME280;10778;48.962;9.018;2023-04-04T00:03:53;100004.13;;;-0.39;67.00
21240;BME280;10778;48.962;9.018;2023-04-04T00:06:19;100000.03;;;-0.46;67.50
21240;BME280;10778;48.962;9.018;2023-04-04T00:08:46;99997.28;;;-0.40;67.09
21240;BME280;10778;48.962;9.018;2023-04-04T00:11:12;99986.41;;;-0.51;67.95
21240;BME280;10778;48.962;9.018;2023-04-04T00:13:39;99993.53;;;-0.60;69.48
21240;BME280;10778;48.962;9.018;2023-04-04T00:16:05;99985.72;;;-0.58;68.41
21240;BME280;10778;48.962;9.018;2023-04-04T00:18:31;99981.03;;;-0.45;67.82
21240;BME280;10778;48.962;9.018;2023-04-04T00:20:58;99985.03;;;-0.63;69.36
21240;BME280;10778;48.962;9.018;2023-04-04T00:23:24;99981.78;;;-0.72;70.16
21240;BME280;10778;48.962;9.018;2023-04-04T00:25:54;99983.69;;;-0.77;70.53
21240;BME280;10778;48.962;9.018;2023-04-04T00:28:20;99982.97;;;-0.82;71.16
21240;BME280;10778;48.962;9.018;2023-04-04T00:30:47;99980.53;;;-0.88;71.65
21240;BME280;10778;48.962;9.018;2023-04-04T00:33:14;99980.75;;;-0.96;71.27
21240;BME280;10778;48.962;9.018;2023-04-04T00:35:40;99977.38;;;-0.98;71.90
21240;BME280;10778;48.962;9.018;2023-04-04T00:38:06;99977.66;;;-1.07;71.66
21240;BME280;10778;48.962;9.018;2023-04-04T00:40:42;99982.28;;;-1.20;71.61
21240;BME280;10778;48.962;9.018;2023-04-04T00:43:09;99969.44;;;-1.23;72.29
21240;BME280;10778;48.962;9.018;2023-04-04T00:45:36;99971.31;;;-1.29;72.60
21240;BME280;10778;48.962;9.018;2023-04-04T00:48:03;99971.53;;;-1.36;72.87
21240;BME280;10778;48.962;9.018;2023-04-04T00:50:29;99966.44;;;-1.39;72.80
21240;BME280;10778;48.962;9.018;2023-04-04T00:52:57;99972.50;;;-1.40;72.92
21240;BME280;10778;48.962;9.018;2023-04-04T00:55:23;99968.16;;;-1.40;74.26
21240;BME280;10778;48.962;9.018;2023-04-04T00:57:50;99958.03;;;-1.48;74.25
21240;BME280;10778;48.962;9.018;2023-04-04T01:00:17;99961.59;;;-1.52;75.02
21240;BME280;10778;48.962;9.018;2023-04-04T01:02:43;99950.50;;;-1.55;74.22
21240;BME280;10778;48.962;9.018;2023-04-04T01:05:09;99954.66;;;-1.50;74.94
21240;BME280;10778;48.962;9.018;2023-04-04T01:07:38;99956.94;;;-1.39;74.03
21240;BME280;10778;48.962;9.018;2023-04-04T01:10:06;99957.94;;;-1.43;73.81
21240;BME280;10778;48.962;9.018;2023-04-04T01:12:33;99959.00;;;-1.50;75.02
21240;BME280;10778;48.962;9.018;2023-04-04T01:15:00;99958.19;;;-1.52;73.77
21240;BME280;10778;48.962;9.018;2023-04-04T01:17:32;99957.50;;;-1.59;74.31
21240;BME280;10778;48.962;9.018;2023-04-04T01:20:04;99952.81;;;-1.45;73.69
21240;BME280;10778;48.962;9.018;2023-04-04T01:22:39;99948.88;;;-1.26;72.47
21240;BME280;10778;48.962;9.018;2023-04-04T01:25:07;99956.94;;;-1.39;73.48
21240;BME280;10778;48.962;9.018;2023-04-04T01:27:35;99962.09;;;-1.39;72.95
21240;BME280;10778;48.962;9.018;2023-04-04T01:30:08;99959.78;;;-1.48;73.77
21240;BME280;10778;48.962;9.018;2023-04-04T01:35:32;99949.50;;;-1.50;73.11
21240;BME280;10778;48.962;9.018;2023-04-04T01:38:17;99952.25;;;-1.56;73.38
21240;BME280;10778;48.962;9.018;2023-04-04T01:40:51;99946.41;;;-1.64;73.95
21240;BME280;10778;48.962;9.018;2023-04-04T01:43:21;99949.94;;;-1.67;74.97
21240;BME280;10778;48.962;9.018;2023-04-04T01:45:47;99946.47;;;-1.66;74.89
21240;BME280;10778;48.962;9.018;2023-04-04T01:48:15;99940.59;;;-1.71;74.56
21240;BME280;10778;48.962;9.018;2023-04-04T01:50:43;99938.13;;;-1.76;75.23
21240;BME280;10778;48.962;9.018;2023-04-04T01:53:09;99938.22;;;-1.79;76.25
21240;BME280;10778;48.962;9.018;2023-04-04T01:55:35;99936.56;;;-1.83;76.02
21240;BME280;10778;48.962;9.018;2023-04-04T01:58:02;99929.44;;;-1.73;74.82
21240;BME280;10778;48.962;9.018;2023-04-04T02:00:29;99937.31;;;-1.78;75.54
21240;BME280;10778;48.962;9.018;2023-04-04T02:02:55;99933.91;;;-1.80;75.17
21240;BME280;10778;48.962;9.018;2023-04-04T02:05:21;99929.00;;;-1.89;75.82
21240;BME280;10778;48.962;9.018;2023-04-04T02:07:48;99931.56;;;-1.88;75.71
21240;BME280;10778;48.962;9.018;2023-04-04T02:10:24;99927.50;;;-2.00;76.38
21240;BME280;10778;48.962;9.018;2023-04-04T02:12:51;99926.63;;;-1.98;75.24
21240;BME280;10778;48.962;9.018;2023-04-04T02:15:20;99933.44;;;-1.94;76.44
21240;BME280;10778;48.962;9.018;2023-04-04T02:17:47;99933.38;;;-1.93;75.48
21240;BME280;10778;48.962;9.018;2023-04-04T02:20:14;99933.38;;;-1.93;75.78
21240;BME280;10778;48.962;9.018;2023-04-04T02:22:40;99936.00;;;-1.94;75.23
21240;BME280;10778;48.962;9.018;2023-04-04T02:25:07;99940.47;;;-2.01;76.49
21240;BME280;10778;48.962;9.018;2023-04-04T02:27:33;99938.88;;;-2.07;76.27
21240;BME280;10778;48.962;9.018;2023-04-04T02:30:00;99934.56;;;-2.06;76.16
21240;BME280;10778;48.962;9.018;2023-04-04T02:32:26;99931.06;;;-2.04;77.09
21240;BME280;10778;48.962;9.018;2023-04-04T02:34:52;99930.03;;;-1.96;75.93
21240;BME280;10778;48.962;9.018;2023-04-04T02:37:18;99933.63;;;-2.02;76.12
21240;BME280;10778;48.962;9.018;2023-04-04T02:39:45;99938.72;;;-2.01;75.66
21240;BME280;10778;48.962;9.018;2023-04-04T02:42:11;99931.94;;;-2.05;75.87
21240;BME280;10778;48.962;9.018;2023-04-04T02:44:37;99939.03;;;-2.13;76.62
21240;BME280;10778;48.962;9.018;2023-04-04T02:47:05;99935.69;;;-2.17;76.12
21240;BME280;10778;48.962;9.018;2023-04-04T02:49:32;99937.47;;;-2.20;76.95
21240;BME280;10778;48.962;9.018;2023-04-04T02:51:58;99933.91;;;-2.15;76.65
21240;BME280;10778;48.962;9.018;2023-04-04T02:54:29;99931.16;;;-2.08;76.29
21240;BME280;10778;48.962;9.018;2023-04-04T02:56:55;99922.72;;;-2.15;76.72
21240;BME280;10778;48.962;9.018;2023-04-04T02:59:21;99925.44;;;-2.20;77.50
21240;BME280;10778;48.962;9.018;2023-04-04T03:01:48;99926.34;;;-2.22;77.26
21240;BME280;10778;48.962;9.018;2023-04-04T03:04:14;99924.66;;;-2.23;77.52
21240;BME280;10778;48.962;9.018;2023-04-04T03:06:41;99928.94;;;-2.22;76.61
21240;BME280;10778;48.962;9.018;2023-04-04T03:09:08;99926.38;;;-2.24;77.54
21240;BME280;10778;48.962;9.018;2023-04-04T03:11:34;99925.69;;;-2.31;78.15
21240;BME280;10778;48.962;9.018;2023-04-04T03:14:00;99930.09;;;-2.36;77.99
21240;BME280;10778;48.962;9.018;2023-04-04T03:16:34;99926.59;;;-2.33;78.27
21240;BME280;10778;48.962;9.018;2023-04-04T03:19:00;99934.25;;;-2.29;78.29
21240;BME280;10778;48.962;9.018;2023-04-04T03:21:27;99931.75;;;-2.33;78.57
21240;BME280;10778;48.962;9.018;2023-04-04T03:23:55;99929.34;;;-2.39;78.97
21240;BME280;10778;48.962;9.018;2023-04-04T03:26:23;99925.88;;;-2.38;78.55
21240;BME280;10778;48.962;9.018;2023-04-04T03:28:50;99923.25;;;-2.37;79.06
21240;BME280;10778;48.962;9.018;2023-04-04T03:31:19;99922.50;;;-2.42;78.51
21240;BME280;10778;48.962;9.018;2023-04-04T03:33:45;99925.16;;;-2.45;78.36
21240;BME280;10778;48.962;9.018;2023-04-04T03:36:12;99920.84;;;-2.45;79.25
21240;BME280;10778;48.962;9.018;2023-04-04T03:38:38;99926.03;;;-2.46;79.59
21240;BME280;10778;48.962;9.018;2023-04-04T03:41:05;99922.53;;;-2.44;79.22
21240;BME280;10778;48.962;9.018;2023-04-04T03:43:32;99919.13;;;-2.44;77.98
21240;BME280;10778;48.962;9.018;2023-04-04T03:46:03;99915.59;;;-2.41;78.38
21240;BME280;10778;48.962;9.018;2023-04-04T03:48:29;99921.09;;;-2.57;78.68
21240;BME280;10778;48.962;9.018;2023-04-04T03:50:56;99916.66;;;-2.49;78.41
21240;BME280;10778;48.962;9.018;2023-04-04T03:53:23;99914.00;;;-2.46;78.43
21240;BME280;10778;48.962;9.018;2023-04-04T03:55:50;99921.19;;;-2.60;79.00
21240;BME280;10778;48.962;9.018;2023-04-04T03:58:16;99920.38;;;-2.62;79.47
21240;BME280;10778;48.962;9.018;2023-04-04T04:00:43;99913.59;;;-2.66;80.91
21240;BME280;10778;48.962;9.018;2023-04-04T04:03:09;99919.59;;;-2.66;80.07
21240;BME280;10778;48.962;9.018;2023-04-04T04:05:35;99923.75;;;-2.59;80.14
21240;BME280;10778;48.962;9.018;2023-04-04T04:08:01;99922.88;;;-2.59;79.37
21240;BME280;10778;48.962;9.018;2023-04-04T04:10:27;99928.09;;;-2.62;80.00
21240;BME280;10778;48.962;9.018;2023-04-04T04:12:53;99920.22;;;-2.54;79.26
21240;BME280;10778;48.962;9.018;2023-04-04T04:15:20;99922.84;;;-2.58;78.69
21240;BME280;10778;48.962;9.018;2023-04-04T04:17:47;99927.44;;;-2.70;80.39
21240;BME280;10778;48.962;9.018;2023-04-04T04:20:14;99927.44;;;-2.70;80.60
21240;BME280;10778;48.962;9.018;2023-04-04T04:22:47;99933.47;;;-2.72;80.56
21240;BME280;10778;48.962;9.018;2023-04-04T04:25:14;99936.22;;;-2.79;81.30
21240;BME280;10778;48.962;9.018;2023-04-04T04:27:44;99937.03;;;-2.77;80.63
21240;BME280;10778;48.962;9.018;2023-04-04T04:30:11;99941.31;;;-2.78;81.34
21240;BME280;10778;48.962;9.018;2023-04-04T04:32:41;99931.81;;;-2.76;80.33
21240;BME280;10778;48.962;9.018;2023-04-04T04:35:08;99932.66;;;-2.74;80.08
21240;BME280;10778;48.962;9.018;2023-04-04T04:37:36;99930.03;;;-2.72;79.26
21240;BME280;10778;48.962;9.018;2023-04-04T04:40:05;99924.78;;;-2.67;79.57
21240;BME280;10778;48.962;9.018;2023-04-04T04:42:36;99928.50;;;-2.81;79.84
21240;BME280;10778;48.962;9.018;2023-04-04T04:45:02;99925.97;;;-2.82;80.96
21240;BME280;10778;48.962;9.018;2023-04-04T04:47:32;99935.56;;;-2.89;82.08
21240;BME280;10778;48.962;9.018;2023-04-04T04:50:02;99936.22;;;-2.81;80.67
21240;BME280;10778;48.962;9.018;2023-04-04T04:52:36;99928.38;;;-2.75;80.59
21240;BME280;10778;48.962;9.018;2023-04-04T04:55:04;99930.09;;;-2.74;81.09
21240;BME280;10778;48.962;9.018;2023-04-04T04:57:32;99930.72;;;-2.64;80.03
21240;BME280;10778;48.962;9.018;2023-04-04T05:00:06;99928.38;;;-2.75;80.82
21240;BME280;10778;48.962;9.018;2023-04-04T05:02:32;99937.81;;;-2.74;80.62
21240;BME280;10778;48.962;9.018;2023-04-04T05:04:59;99937.84;;;-2.77;81.44
21240;BME280;10778;48.962;9.018;2023-04-04T05:07:27;99940.41;;;-2.75;82.02
21240;BME280;10778;48.962;9.018;2023-04-04T05:09:53;99948.13;;;-2.75;81.70
21240;BME280;10778;48.962;9.018;2023-04-04T05:12:21;99952.38;;;-2.73;81.94
21240;BME280;10778;48.962;9.018;2023-04-04T05:14:50;99943.78;;;-2.73;80.91
21240;BME280;10778;48.962;9.018;2023-04-04T05:17:16;99946.34;;;-2.72;81.80
21240;BME280;10778;48.962;9.018;2023-04-04T05:19:42;99943.66;;;-2.67;81.01
21240;BME280;10778;48.962;9.018;2023-04-04T05:22:13;99940.91;;;-2.59;80.46
21240;BME280;10778;48.962;9.018;2023-04-04T05:24:44;99944.28;;;-2.55;80.88
21240;BME280;10778;48.962;9.018;2023-04-04T05:27:14;99939.22;;;-2.60;81.26
21240;BME280;10778;48.962;9.018;2023-04-04T05:29:45;99940.09;;;-2.60;80.95
21240;BME280;10778;48.962;9.018;2023-04-04T05:32:13;99936.47;;;-2.52;81.15
21240;BME280;10778;48.962;9.018;2023-04-04T05:34:44;99934.59;;;-2.44;81.24
21240;BME280;10778;48.962;9.018;2023-04-04T05:37:16;99942.22;;;-2.39;80.98
21240;BME280;10778;48.962;9.018;2023-04-04T05:39:47;99943.69;;;-2.29;80.40
21240;BME280;10778;48.962;9.018;2023-04-04T05:42:14;99943.53;;;-2.23;80.62
21240;BME280;10778;48.962;9.018;2023-04-04T05:44:46;99944.41;;;-2.22;79.64
21240;BME280;10778;48.962;9.018;2023-04-04T05:47:12;99949.38;;;-2.15;80.03
21240;BME280;10778;48.962;9.018;2023-04-04T05:49:43;99950.88;;;-2.06;78.39
21240;BME280;10778;48.962;9.018;2023-04-04T05:52:09;99943.59;;;-0.62;75.57
21240;BME280;10778;48.962;9.018;2023-04-04T05:54:37;99938.53;;;0.70;69.31
21240;BME280;10778;48.962;9.018;2023-04-04T05:57:09;99931.50;;;2.31;63.10
21240;BME280;10778;48.962;9.018;2023-04-04T05:59:44;99935.72;;;3.13;60.10
21240;BME280;10778;48.962;9.018;2023-04-04T06:02:13;99932.75;;;3.96;58.37
21240;BME280;10778;48.962;9.018;2023-04-04T06:04:44;99935.16;;;4.70;55.34
21240;BME280;10778;48.962;9.018;2023-04-04T06:07:13;99936.78;;;5.38;54.04
21240;BME280;10778;48.962;9.018;2023-04-04T06:09:41;99936.63;;;5.74;53.13
21240;BME280;10778;48.962;9.018;2023-04-04T06:12:08;99934.94;;;5.57;52.51
21240;BME280;10778;48.962;9.018;2023-04-04T06:14:35;99927.97;;;6.04;51.39
21240;BME280;10778;48.962;9.018;2023-04-04T06:17:03;99929.00;;;6.32;50.75
21240;BME280;10778;48.962;9.018;2023-04-04T06:19:30;99929.88;;;6.16;50.46
21240;BME280;10778;48.962;9.018;2023-04-04T06:21:57;99936.84;;;6.32;51.43
21240;BME280;10778;48.962;9.018;2023-04-04T06:24:23;99936.88;;;6.90;49.78
21240;BME280;10778;48.962;9.018;2023-04-04T06:26:50;99933.25;;;7.21;48.62
21240;BME280;10778;48.962;9.018;2023-04-04T06:29:19;99937.19;;;6.85;48.82
21240;BME280;10778;48.962;9.018;2023-04-04T06:31:48;99941.50;;;6.86;49.38
21240;BME280;10778;48.962;9.018;2023-04-04T06:34:20;99942.44;;;6.40;50.34
21240;BME280;10778;48.962;9.018;2023-04-04T06:36:55;99936.94;;;7.32;48.62
21240;BME280;10778;48.962;9.018;2023-04-04T06:39:25;99927.69;;;7.68;47.47
21240;BME280;10778;48.962;9.018;2023-04-04T06:41:53;99930.59;;;8.31;46.43
21240;BME280;10778;48.962;9.018;2023-04-04T06:44:24;99930.69;;;7.89;45.98
21240;BME280;10778;48.962;9.018;2023-04-04T06:46:50;99930.91;;;7.59;46.40
21240;BME280;10778;48.962;9.018;2023-04-04T06:49:17;99931.22;;;7.94;46.16
21240;BME280;10778;48.962;9.018;2023-04-04T06:51:43;99933.66;;;7.43;47.69
21240;BME280;10778;48.962;9.018;2023-04-04T06:54:09;99928.88;;;7.49;46.25
21240;BME280;10778;48.962;9.018;2023-04-04T06:56:35;99926.72;;;8.24;45.46
21240;BME280;10778;48.962;9.018;2023-04-04T06:59:02;99922.13;;;8.00;45.73
21240;BME280;10778;48.962;9.018;2023-04-04T07:01:28;99925.47;;;7.89;45.60
21240;BME280;10778;48.962;9.018;2023-04-04T07:03:54;99924.91;;;7.71;46.04
21240;BME280;10778;48.962;9.018;2023-04-04T07:06:21;99918.50;;;8.29;45.28
21240;BME280;10778;48.962;9.018;2023-04-04T07:08:49;99915.31;;;8.51;44.91
21240;BME280;10778;48.962;9.018;2023-04-04T07:11:15;99917.63;;;8.68;43.71
21240;BME280;10778;48.962;9.018;2023-04-04T07:13:41;99916.66;;;8.31;44.43
21240;BME280;10778;48.962;9.018;2023-04-04T07:16:07;99923.75;;;8.29;45.11
21240;BME280;10778;48.962;9.018;2023-04-04T07:18:33;99927.72;;;8.08;45.31
21240;BME280;10778;48.962;9.018;2023-04-04T07:20:59;99922.41;;;8.23;44.06
21240;BME280;10778;48.962;9.018;2023-04-04T07:23:25;99913.63;;;8.89;43.05
21240;BME280;10778;48.962;9.018;2023-04-04T07:25:51;99918.53;;;9.06;43.79
21240;BME280;10778;48.962;9.018;2023-04-04T07:28:18;99920.94;;;9.09;44.11
21240;BME280;10778;48.962;9.018;2023-04-04T07:30:44;99914.44;;;9.02;43.57
21240;BME280;10778;48.962;9.018;2023-04-04T07:33:10;99915.09;;;9.67;42.43
21240;BME280;10778;48.962;9.018;2023-04-04T07:35:36;99920.38;;;9.54;44.85
21240;BME280;10778;48.962;9.018;2023-04-04T07:38:02;99915.25;;;9.53;41.64
21240;BME280;10778;48.962;9.018;2023-04-04T07:40:29;99923.09;;;8.91;42.70
21240;BME280;10778;48.962;9.018;2023-04-04T07:42:55;99914.56;;;8.36;43.51
21240;BME280;10778;48.962;9.018;2023-04-04T07:45:21;99912.19;;;9.22;45.18
21240;BME280;10778;48.962;9.018;2023-04-04T07:47:48;99911.19;;;9.36;42.24
21240;BME280;10778;48.962;9.018;2023-04-04T07:50:14;99914.56;;;9.38;47.04
21240;BME280;10778;48.962;9.018;2023-04-04T07:52:41;99919.34;;;9.20;41.63
21240;BME280;10778;48.962;9.018;2023-04-04T07:55:08;99911.19;;;8.99;42.00
21240;BME280;10778;48.962;9.018;2023-04-04T07:57:37;99907.91;;;9.21;41.49
21240;BME280;10778;48.962;9.018;2023-04-04T08:00:07;99909.69;;;9.93;41.03
21240;BME280;10778;48.962;9.018;2023-04-04T08:02:39;99916.03;;;9.42;39.86
21240;BME280;10778;48.962;9.018;2023-04-04T08:05:06;99909.78;;;9.56;40.34
21240;BME280;10778;48.962;9.018;2023-04-04T08:07:32;99913.91;;;9.47;40.29
21240;BME280;10778;48.962;9.018;2023-04-04T08:09:58;99903.94;;;8.89;39.65
21240;BME280;10778;48.962;9.018;2023-04-04T08:12:24;99906.19;;;8.82;40.80
21240;BME280;10778;48.962;9.018;2023-04-04T08:14:50;99909.44;;;8.99;40.60
21240;BME280;10778;48.962;9.018;2023-04-04T08:17:17;99905.59;;;9.16;41.33
21240;BME280;10778;48.962;9.018;2023-04-04T08:19:45;99905.56;;;8.53;39.94
21240;BME280;10778;48.962;9.018;2023-04-04T08:22:11;99902.09;;;8.78;40.21
21240;BME280;10778;48.962;9.018;2023-04-04T08:24:37;99911.16;;;8.08;40.90
21240;BME280;10778;48.962;9.018;2023-04-04T08:27:03;99917.28;;;6.97;42.12
21240;BME280;10778;48.962;9.018;2023-04-04T08:29:29;99908.84;;;7.48;42.66
21240;BME280;10778;48.962;9.018;2023-04-04T08:31:57;99910.47;;;8.32;41.72
21240;BME280;10778;48.962;9.018;2023-04-04T08:34:23;99903.13;;;8.89;40.70
21240;BME280;10778;48.962;9.018;2023-04-04T08:36:49;99914.16;;;8.81;41.60
21240;BME280;10778;48.962;9.018;2023-04-04T08:39:15;99913.03;;;8.59;41.07
21240;BME280;10778;48.962;9.018;2023-04-04T08:41:42;99901.00;;;9.44;39.71
21240;BME280;10778;48.962;9.018;2023-04-04T08:44:16;99903.69;;;9.18;39.45
21240;BME280;10778;48.962;9.018;2023-04-04T08:46:46;99904.28;;;8.98;40.05
21240;BME280;10778;48.962;9.018;2023-04-04T08:49:37;99904.50;;;8.56;40.26
21240;BME280;10778;48.962;9.018;2023-04-04T08:52:06;99904.44;;;9.45;39.92
21240;BME280;10778;48.962;9.018;2023-04-04T08:54:33;99908.22;;;9.16;40.29
21240;BME280;10778;48.962;9.018;2023-04-04T08:57:03;99903.63;;;8.94;40.25
21240;BME280;10778;48.962;9.018;2023-04-04T08:59:30;99910.34;;;8.46;40.34
21240;BME280;10778;48.962;9.018;2023-04-04T09:04:34;99908.53;;;9.49;40.27
21240;BME280;10778;48.962;9.018;2023-04-04T09:07:00;99909.88;;;9.54;39.08
21240;BME280;10778;48.962;9.018;2023-04-04T09:09:30;99899.47;;;9.29;39.10
21240;BME280;10778;48.962;9.018;2023-04-04T09:11:59;99905.75;;;9.63;39.53
21240;BME280;10778;48.962;9.018;2023-04-04T09:14:26;99907.41;;;9.89;39.10
21240;BME280;10778;48.962;9.018;2023-04-04T09:16:54;99909.28;;;9.01;39.14
21240;BME280;10778;48.962;9.018;2023-04-04T09:19:20;99907.72;;;9.84;39.91
21240;BME280;10778;48.962;9.018;2023-04-04T09:21:48;99907.63;;;9.37;38.77
21240;BME280;10778;48.962;9.018;2023-04-04T09:24:14;99903.78;;;9.54;38.12
21240;BME280;10778;48.962;9.018;2023-04-04T09:26:51;99895.59;;;9.59;37.63
21240;BME280;10778;48.962;9.018;2023-04-04T09:29:18;99896.41;;;9.84;36.99
21240;BME280;10778;48.962;9.018;2023-04-04T09:31:45;99901.75;;;9.58;38.57
21240;BME280;10778;48.962;9.018;2023-04-04T09:34:12;99906.91;;;8.46;38.33
21240;BME280;10778;48.962;9.018;2023-04-04T09:36:40;99909.13;;;9.28;39.76
21240;BME280;10778;48.962;9.018;2023-04-04T09:39:07;99908.94;;;9.18;37.52
21240;BME280;10778;48.962;9.018;2023-04-04T09:41:33;99899.09;;;9.95;37.55
21240;BME280;10778;48.962;9.018;2023-04-04T09:43:59;99903.16;;;9.50;37.42
21240;BME280;10778;48.962;9.018;2023-04-04T09:46:26;99896.53;;;9.33;38.27
21240;BME280;10778;48.962;9.018;2023-04-04T09:48:52;99886.06;;;9.45;39.17
21240;BME280;10778;48.962;9.018;2023-04-04T09:51:20;99892.09;;;9.58;38.02
21240;BME280;10778;48.962;9.018;2023-04-04T09:53:47;99899.47;;;9.29;38.63
21240;BME280;10778;48.962;9.018;2023-04-04T09:56:13;99891.81;;;9.50;38.09
21240;BME280;10778;48.962;9.018;2023-04-04T09:58:40;99895.59;;;9.94;38.18
21240;BME280;10778;48.962;9.018;2023-04-04T10:01:09;99901.09;;;9.67;38.07
21240;BME280;10778;48.962;9.018;2023-04-04T10:03:36;99903.22;;;9.00;38.53
21240;BME280;10778;48.962;9.018;2023-04-04T10:06:05;99898.41;;;9.31;39.47
21240;BME280;10778;48.962;9.018;2023-04-04T10:08:32;99894.84;;;10.17;39.13
21240;BME280;10778;48.962;9.018;2023-04-04T10:11:07;99894.94;;;10.15;37.17
21240;BME280;10778;48.962;9.018;2023-04-04T10:13:35;99887.84;;;9.93;37.99
21240;BME280;10778;48.962;9.018;2023-04-04T10:16:03;99890.03;;;9.26;38.83
21240;BME280;10778;48.962;9.018;2023-04-04T10:18:31;99891.22;;;10.53;38.16
21240;BME280;10778;48.962;9.018;2023-04-04T10:21:01;99885.72;;;9.74;39.29
21240;BME280;10778;48.962;9.018;2023-04-04T10:23:27;99896.78;;;9.42;38.99
21240;BME280;10778;48.962;9.018;2023-04-04T10:25:54;99885.13;;;9.70;39.35
21240;BME280;10778;48.962;9.018;2023-04-04T10:28:21;99888.41;;;9.85;40.76
21240;BME280;10778;48.962;9.018;2023-04-04T10:30:54;99887.66;;;9.83;39.51
21240;BME280;10778;48.962;9.018;2023-04-04T10:33:43;99886.22;;;9.30;40.47
21240;BME280;10778;48.962;9.018;2023-04-04T10:36:13;99879.06;;;9.81;39.87
21240;BME280;10778;48.962;9.018;2023-04-04T10:38:43;99884.94;;;10.32;38.40
21240;BME280;10778;48.962;9.018;2023-04-04T10:41:11;99880.00;;;9.80;37.45
21240;BME280;10778;48.962;9.018;2023-04-04T10:43:40;99879.38;;;9.65;36.31
21240;BME280;10778;48.962;9.018;2023-04-04T10:46:10;99881.69;;;9.32;38.54
21240;BME280;10778;48.962;9.018;2023-04-04T10:48:39;99878.53;;;9.03;39.66
21240;BME280;10778;48.962;9.018;2023-04-04T10:51:06;99873.38;;;9.63;38.61
21240;BME280;10778;48.962;9.018;2023-04-04T10:53:33;99869.28;;;8.97;38.04
21240;BME280;10778;48.962;9.018;2023-04-04T10:56:01;99875.94;;;9.76;39.05
21240;BME280;10778;48.962;9.018;2023-04-04T10:58:27;99869.53;;;10.27;39.23
21240;BME280;10778;48.962;9.018;2023-04-04T11:00:55;99867.63;;;10.29;38.96
21240;BME280;10778;48.962;9.018;2023-04-04T11:03:21;99862.06;;;10.09;36.47
21240;BME280;10778;48.962;9.018;2023-04-04T11:05:49;99864.41;;;9.54;39.26
21240;BME280;10778;48.962;9.018;2023-04-04T11:08:26;99861.44;;;9.94;38.49
21240;BME280;10778;48.962;9.018;2023-04-04T11:10:54;99859.59;;;10.31;39.07
21240;BME280;10778;48.962;9.018;2023-04-04T11:13:31;99858.34;;;9.65;38.68
21240;BME280;10778;48.962;9.018;2023-04-04T11:16:06;99850.00;;;9.71;38.54
21240;BME280;10778;48.962;9.018;2023-04-04T11:21:14;99852.47;;;9.61;40.67
21240;BME280;10778;48.962;9.018;2023-04-04T11:28:56;99843.63;;;9.62;39.23
21240;BME280;10778;48.962;9.018;2023-04-04T11:31:27;99847.16;;;10.33;40.72
21240;BME280;10778;48.962;9.018;2023-04-04T11:34:30;99841.75;;;9.40;39.76
21240;BME280;10778;48.962;9.018;2023-04-04T11:36:56;99839.19;;;9.87;38.18
21240;BME280;10778;48.962;9.018;2023-04-04T11:39:29;99845.69;;;9.70;39.15
21240;BME280;10778;48.962;9.018;2023-04-04T11:42:05;99843.56;;;10.34;41.28
21240;BME280;10778;48.962;9.018;2023-04-04T11:44:59;99839.06;;;9.53;38.80
21240;BME280;10778;48.962;9.018;2023-04-04T11:47:24;99835.03;;;9.96;39.85
21240;BME280;10778;48.962;9.018;2023-04-04T11:49:54;99834.50;;;10.38;39.63
21240;BME280;10778;48.962;9.018;2023-04-04T11:52:20;99828.00;;;10.08;39.41
21240;BME280;10778;48.962;9.018;2023-04-04T11:54:48;99831.84;;;10.04;39.40
21240;BME280;10778;48.962;9.018;2023-04-04T11:57:16;99824.16;;;9.89;41.12
21240;BME280;10778;48.962;9.018;2023-04-04T11:59:47;99814.09;;;10.64;43.63
21240;BME280;10778;48.962;9.018;2023-04-04T12:02:22;99818.03;;;10.47;39.76
21240;BME280;10778;48.962;9.018;2023-04-04T12:04:52;99813.06;;;10.08;39.79
21240;BME280;10778;48.962;9.018;2023-04-04T12:07:18;99815.44;;;9.64;40.91
21240;BME280;10778;48.962;9.018;2023-04-04T12:09:44;99823.31;;;10.00;39.92
21240;BME280;10778;48.962;9.018;2023-04-04T12:12:12;99820.31;;;10.63;39.86
21240;BME280;10778;48.962;9.018;2023-04-04T12:14:41;99815.81;;;10.07;40.74
21240;BME280;10778;48.962;9.018;2023-04-04T12:17:08;99813.56;;;10.25;38.37
21240;BME280;10778;48.962;9.018;2023-04-04T12:19:39;99814.56;;;10.47;37.68
21240;BME280;10778;48.962;9.018;2023-04-04T12:22:06;99813.56;;;10.36;39.74
21240;BME280;10778;48.962;9.018;2023-04-04T12:24:35;99809.88;;;9.69;39.81
21240;BME280;10778;48.962;9.018;2023-04-04T12:27:02;99806.97;;;9.61;40.95
21240;BME280;10778;48.962;9.018;2023-04-04T12:29:29;99803.31;;;9.75;38.93
21240;BME280;10778;48.962;9.018;2023-04-04T12:32:03;99818.34;;;10.31;39.31
21240;BME280;10778;48.962;9.018;2023-04-04T12:34:31;99804.69;;;10.26;39.30
21240;BME280;10778;48.962;9.018;2023-04-04T12:37:00;99802.22;;;10.24;40.08
21240;BME280;10778;48.962;9.018;2023-04-04T12:39:26;99797.19;;;10.90;40.47
21240;BME280;10778;48.962;9.018;2023-04-04T12:41:56;99787.75;;;10.42;40.77
21240;BME280;10778;48.962;9.018;2023-04-04T12:44:36;99791.31;;;10.98;40.20
21240;BME280;10778;48.962;9.018;2023-04-04T12:47:08;99788.34;;;10.22;40.11
21240;BME280;10778;48.962;9.018;2023-04-04T12:49:40;99789.16;;;10.23;39.82
21240;BME280;10778;48.962;9.018;2023-04-04T12:54:42;99783.22;;;10.66;40.17
21240;BME280;10778;48.962;9.018;2023-04-04T12:57:08;99781.16;;;10.24;39.23
21240;BME280;10778;48.962;9.018;2023-04-04T12:59:36;99781.53;;;10.20;39.26
21240;BME280;10778;48.962;9.018;2023-04-04T13:02:08;99784.19;;;10.65;38.85
21240;BME280;10778;48.962;9.018;2023-04-04T13:04:35;99778.59;;;11.35;41.34
21240;BME280;10778;48.962;9.018;2023-04-04T13:07:02;99778.19;;;11.73;39.64
21240;BME280;10778;48.962;9.018;2023-04-04T13:09:29;99769.66;;;10.94;38.29
21240;BME280;10778;48.962;9.018;2023-04-04T13:12:02;99777.50;;;10.50;39.08
21240;BME280;10778;48.962;9.018;2023-04-04T13:14:58;99774.56;;;10.76;39.00
21240;BME280;10778;48.962;9.018;2023-04-04T13:17:25;99770.19;;;11.42;37.92
21240;BME280;10778;48.962;9.018;2023-04-04T13:19:51;99767.00;;;11.59;37.31
21240;BME280;10778;48.962;9.018;2023-04-04T13:22:17;99766.44;;;11.44;38.34
21240;BME280;10778;48.962;9.018;2023-04-04T13:24:43;99763.63;;;11.36;38.60
21240;BME280;10778;48.962;9.018;2023-04-04T13:27:09;99758.03;;;10.97;37.61